Terminal Aerodrome Forecast
Issued by NWS

Home | Current Version | Previous Version | Text Only | Print | Product List | Glossary On
Versions: 1 2 3 4 5 6 7 8 9 10 11 12 13 14 15 16 17 18 19 20 21 22 23 24
000
FTUS44 KOUN 101740
TAFPNC
TAF
KPNC 101740Z 1018/1118 18009G19KT P6SM OVC040
      TEMPO 1018/1020 SCT050
     FM110000 17014G19KT P6SM SCT250
     FM110700 17014KT P6SM OVC030
     FM111000 17016KT P6SM OVC009=

USA.gov is the U.S. government's official web portal to all federal, state and local government web resources and services.